Time;durP1;ratioP1;P1;durP2;ratioP2;P2;SDS_P1;SDS_P2;PMS_P1;PMS_P2;Temp;Humidity;BMP_temperature;BMP_pressure;BME280_temperature;BME280_humidity;BME280_pressure;Samples;Min_cycle;Max_cycle;Signal;HPM_P1;HPM_P2
2022/09/15 00:00:23;;;;;;;;;;;15.00;99.90;;;;;;5058861;28;19921;-64
2022/09/15 00:02:48;;;;;;;;;;;15.10;99.90;;;;;;5064497;28;20015;-65
2022/09/15 00:05:14;;;;;;;;;;;15.10;99.90;;;;;;5066818;28;19920;-64
2022/09/15 00:07:40;;;;;;;;;;;15.00;99.90;;;;;;5065303;28;19917;-66
2022/09/15 00:10:06;;;;;;;;;;;15.10;99.90;;;;;;5048505;28;20040;-65
2022/09/15 00:12:32;;;;;;;;;;;15.10;99.90;;;;;;5060324;28;19982;-65
2022/09/15 00:14:58;;;;;;;;;;;15.20;99.90;;;;;;5069384;28;20381;-64
2022/09/15 00:17:23;;;;;;;;;;;15.30;99.90;;;;;;5069508;28;19943;-65
2022/09/15 00:19:49;;;;;;;;;;;15.20;99.90;;;;;;5065027;28;20254;-65
2022/09/15 00:22:14;;;;;;;;;;;15.20;99.90;;;;;;5072697;28;19916;-64
2022/09/15 00:24:40;;;;;;;;;;;15.20;99.90;;;;;;5071503;28;19912;-64
2022/09/15 00:27:06;;;;;;;;;;;15.30;99.90;;;;;;5068032;28;19919;-65
2022/09/15 00:29:31;;;;;;;;;;;15.20;99.90;;;;;;5068335;28;19921;-65
2022/09/15 00:31:57;;;;;;;;;;;15.20;99.90;;;;;;5064188;28;19913;-64
2022/09/15 00:34:22;;;;;;;;;;;15.30;99.90;;;;;;5064577;28;20012;-65
2022/09/15 00:36:48;;;;;;;;;;;15.40;99.90;;;;;;5067465;28;20356;-65
2022/09/15 00:39:13;;;;;;;;;;;15.40;99.90;;;;;;5066901;28;20556;-65
2022/09/15 00:41:39;;;;;;;;;;;15.50;99.90;;;;;;5060606;28;19926;-64
2022/09/15 00:44:25;;;;;;;;;;;15.40;99.90;;;;;;5066309;28;20370;-65
2022/09/15 00:46:52;;;;;;;;;;;15.50;99.90;;;;;;5065670;28;19995;-65
2022/09/15 00:49:17;;;;;;;;;;;15.50;99.90;;;;;;5059693;28;20375;-65
2022/09/15 00:51:51;;;;;;;;;;;15.50;99.90;;;;;;5057002;28;19966;-65
2022/09/15 00:54:22;;;;;;;;;;;15.50;99.90;;;;;;5061793;28;19935;-64
2022/09/15 00:56:49;;;;;;;;;;;15.60;99.90;;;;;;5067155;28;19918;-65
2022/09/15 00:59:17;;;;;;;;;;;15.50;99.90;;;;;;5063953;28;19954;-65
2022/09/15 01:01:44;;;;;;;;;;;15.50;99.90;;;;;;5065581;28;19917;-65
2022/09/15 01:04:09;;;;;;;;;;;15.50;99.90;;;;;;5069039;28;20275;-65
2022/09/15 01:06:36;;;;;;;;;;;15.50;99.90;;;;;;5062542;28;19909;-65
2022/09/15 01:09:02;;;;;;;;;;;15.40;99.90;;;;;;5057194;28;20024;-64
2022/09/15 01:11:27;;;;;;;;;;;15.40;99.90;;;;;;5059278;28;20250;-65
2022/09/15 01:13:53;;;;;;;;;;;15.30;99.90;;;;;;5058030;28;19934;-64
2022/09/15 01:16:19;;;;;;;;;;;15.30;99.90;;;;;;5056374;28;19912;-64
2022/09/15 01:18:53;;;;;;;;;;;15.30;99.90;;;;;;5061167;28;20007;-65
2022/09/15 01:21:45;;;;;;;;;;;15.30;99.90;;;;;;5059764;28;19912;-65
2022/09/15 01:24:16;;;;;;;;;;;15.30;99.90;;;;;;5029883;28;20008;-64
2022/09/15 01:26:45;;;;;;;;;;;15.20;99.90;;;;;;5059534;28;19958;-66
2022/09/15 01:29:29;;;;;;;;;;;15.20;99.90;;;;;;5063336;28;20019;-65
2022/09/15 01:34:53;;;;;;;;;;;15.10;99.90;;;;;;5065823;28;20328;-64
2022/09/15 01:37:23;;;;;;;;;;;15.00;99.90;;;;;;5067067;28;20045;-65
2022/09/15 01:39:49;;;;;;;;;;;15.00;99.90;;;;;;5067308;28;20678;-65
2022/09/15 01:42:17;;;;;;;;;;;15.00;99.90;;;;;;5067866;28;19912;-65
2022/09/15 01:44:53;;;;;;;;;;;15.10;99.90;;;;;;5068264;28;19916;-64
2022/09/15 01:47:19;;;;;;;;;;;15.10;99.90;;;;;;5059142;28;19956;-65
2022/09/15 01:49:53;;;;;;;;;;;15.10;99.90;;;;;;5063694;28;19980;-65
2022/09/15 01:52:20;;;;;;;;;;;15.10;99.90;;;;;;5070121;28;19961;-65
2022/09/15 01:54:48;;;;;;;;;;;15.10;99.90;;;;;;5068265;28;19912;-65
2022/09/15 01:57:16;;;;;;;;;;;15.10;99.90;;;;;;5069041;28;19912;-65
2022/09/15 01:59:44;;;;;;;;;;;15.10;99.90;;;;;;5066691;28;19912;-64
2022/09/15 02:02:11;;;;;;;;;;;15.00;99.90;;;;;;5070910;28;19913;-64
2022/09/15 02:04:45;;;;;;;;;;;14.90;99.90;;;;;;5069523;28;20017;-64
2022/09/15 02:07:14;;;;;;;;;;;14.90;99.90;;;;;;5063906;28;19916;-65
2022/09/15 02:09:43;;;;;;;;;;;15.00;99.90;;;;;;5035416;28;20015;-65
2022/09/15 02:12:11;;;;;;;;;;;14.90;99.90;;;;;;5061393;28;19920;-65
2022/09/15 02:14:55;;;;;;;;;;;14.90;99.90;;;;;;5062205;28;19973;-65
2022/09/15 02:17:21;;;;;;;;;;;15.00;99.90;;;;;;5059123;28;19912;-65
2022/09/15 02:19:52;;;;;;;;;;;14.90;99.90;;;;;;5062648;28;20069;-65
2022/09/15 02:22:25;;;;;;;;;;;15.00;99.90;;;;;;5061125;28;19913;-64
2022/09/15 02:25:03;;;;;;;;;;;15.10;99.90;;;;;;5067326;28;19913;-64
2022/09/15 02:27:31;;;;;;;;;;;15.10;99.90;;;;;;5063158;28;19932;-65
2022/09/15 02:30:00;;;;;;;;;;;15.00;99.90;;;;;;5061997;28;19921;-64
2022/09/15 02:32:26;;;;;;;;;;;15.10;99.90;;;;;;5055677;28;21234;-65
2022/09/15 02:34:53;;;;;;;;;;;15.00;99.90;;;;;;5041252;28;19919;-65
2022/09/15 02:37:20;;;;;;;;;;;15.00;99.90;;;;;;5061081;28;20128;-65
2022/09/15 02:39:48;;;;;;;;;;;14.90;99.90;;;;;;5060274;28;20504;-65
2022/09/15 02:42:22;;;;;;;;;;;14.90;99.90;;;;;;5062754;28;20331;-64
2022/09/15 02:44:47;;;;;;;;;;;15.00;99.90;;;;;;5068894;28;20429;-64
2022/09/15 02:47:13;;;;;;;;;;;15.00;99.90;;;;;;5069277;28;19924;-65
2022/09/15 02:49:38;;;;;;;;;;;15.00;99.90;;;;;;5066892;28;19921;-65
2022/09/15 02:52:04;;;;;;;;;;;15.00;99.90;;;;;;5070760;28;19983;-64
2022/09/15 02:54:30;;;;;;;;;;;15.00;99.90;;;;;;5067094;28;20003;-64
2022/09/15 02:56:55;;;;;;;;;;;15.00;99.90;;;;;;5066596;28;20049;-65
2022/09/15 02:59:20;;;;;;;;;;;14.90;99.90;;;;;;5063382;28;19912;-64
2022/09/15 03:01:46;;;;;;;;;;;14.90;99.90;;;;;;5064756;28;20345;-65
2022/09/15 03:04:12;;;;;;;;;;;14.90;99.90;;;;;;5069995;28;19912;-64
2022/09/15 03:06:37;;;;;;;;;;;14.90;99.90;;;;;;5065198;28;19934;-65
2022/09/15 03:09:06;;;;;;;;;;;14.90;99.90;;;;;;5066956;28;19935;-65
2022/09/15 03:11:32;;;;;;;;;;;14.90;99.90;;;;;;5068480;28;19966;-65
2022/09/15 03:14:01;;;;;;;;;;;14.90;99.90;;;;;;5064581;28;20205;-64
2022/09/15 03:16:27;;;;;;;;;;;14.90;99.90;;;;;;5061193;28;19913;-64
2022/09/15 03:18:53;;;;;;;;;;;14.90;99.90;;;;;;5067300;28;20004;-64
2022/09/15 03:21:20;;;;;;;;;;;14.90;99.90;;;;;;5067832;28;19916;-64
2022/09/15 03:23:45;;;;;;;;;;;14.90;99.90;;;;;;5067984;28;20003;-64
2022/09/15 03:26:11;;;;;;;;;;;14.90;99.90;;;;;;5064471;28;20003;-65
2022/09/15 03:28:37;;;;;;;;;;;14.90;99.90;;;;;;5069820;28;19912;-64
2022/09/15 03:31:03;;;;;;;;;;;15.00;99.90;;;;;;5064907;28;19974;-65
2022/09/15 03:33:29;;;;;;;;;;;15.00;99.90;;;;;;5063228;28;19920;-65
2022/09/15 03:35:55;;;;;;;;;;;14.90;99.90;;;;;;5056361;28;19912;-65
2022/09/15 03:38:20;;;;;;;;;;;14.90;99.90;;;;;;5065241;28;20004;-65
2022/09/15 03:40:57;;;;;;;;;;;14.90;99.90;;;;;;5068651;28;19913;-65
2022/09/15 03:43:22;;;;;;;;;;;15.00;99.90;;;;;;5067854;28;19912;-65
2022/09/15 03:45:48;;;;;;;;;;;15.00;99.90;;;;;;5068347;28;20248;-65
2022/09/15 03:48:13;;;;;;;;;;;14.90;99.90;;;;;;5066264;28;19934;-65
2022/09/15 03:50:39;;;;;;;;;;;14.90;99.90;;;;;;5063382;28;20271;-66
2022/09/15 03:53:04;;;;;;;;;;;14.90;99.90;;;;;;5059942;28;20388;-65
2022/09/15 03:55:30;;;;;;;;;;;14.90;99.90;;;;;;5064583;28;19958;-65
2022/09/15 03:57:55;;;;;;;;;;;15.00;99.90;;;;;;5063337;28;19913;-65
2022/09/15 04:00:21;;;;;;;;;;;15.00;99.90;;;;;;5063461;28;19917;-65
2022/09/15 04:02:47;;;;;;;;;;;15.00;99.90;;;;;;5067954;28;19930;-65
2022/09/15 04:05:12;;;;;;;;;;;15.00;99.90;;;;;;5066504;28;19919;-65
2022/09/15 04:07:39;;;;;;;;;;;15.00;99.90;;;;;;5067064;28;19920;-64
2022/09/15 04:10:05;;;;;;;;;;;15.10;99.90;;;;;;5064427;28;20271;-65
2022/09/15 04:12:31;;;;;;;;;;;15.10;99.90;;;;;;5060410;28;19925;-65
2022/09/15 04:14:56;;;;;;;;;;;15.20;99.90;;;;;;5061475;28;19920;-65
2022/09/15 04:17:22;;;;;;;;;;;15.20;99.90;;;;;;5047004;28;19913;-64
2022/09/15 04:19:47;;;;;;;;;;;15.30;99.90;;;;;;5056973;28;20349;-65
2022/09/15 04:22:13;;;;;;;;;;;15.30;99.90;;;;;;5066477;28;19916;-65
2022/09/15 04:24:39;;;;;;;;;;;15.30;99.90;;;;;;5068425;28;19912;-64
2022/09/15 04:27:04;;;;;;;;;;;15.40;99.90;;;;;;5058376;28;19913;-66
2022/09/15 04:29:30;;;;;;;;;;;15.50;99.90;;;;;;5067811;28;19917;-65
2022/09/15 04:31:55;;;;;;;;;;;15.40;99.90;;;;;;5056705;28;19924;-65
2022/09/15 04:34:21;;;;;;;;;;;15.30;99.90;;;;;;5064358;28;19913;-64
2022/09/15 04:36:47;;;;;;;;;;;15.30;99.90;;;;;;5063294;28;19924;-65
2022/09/15 04:39:12;;;;;;;;;;;15.30;99.90;;;;;;5060430;28;19916;-65
2022/09/15 04:41:38;;;;;;;;;;;15.40;99.90;;;;;;5063945;28;19919;-65
2022/09/15 04:44:03;;;;;;;;;;;15.50;99.90;;;;;;5061147;28;19959;-65
2022/09/15 04:46:29;;;;;;;;;;;15.60;99.90;;;;;;5055591;28;19959;-65
2022/09/15 04:48:55;;;;;;;;;;;15.50;99.90;;;;;;5043582;28;19917;-65
2022/09/15 04:51:22;;;;;;;;;;;15.50;99.90;;;;;;5066292;28;19961;-65
2022/09/15 04:53:48;;;;;;;;;;;15.50;99.90;;;;;;5066268;28;19919;-65
2022/09/15 04:56:15;;;;;;;;;;;15.30;99.90;;;;;;5069583;28;19913;-65
2022/09/15 04:58:43;;;;;;;;;;;15.30;99.90;;;;;;5069301;28;20279;-65
2022/09/15 05:01:12;;;;;;;;;;;15.20;99.90;;;;;;5062780;28;19920;-64
2022/09/15 05:03:38;;;;;;;;;;;15.20;99.90;;;;;;5067233;28;19920;-65
2022/09/15 05:06:05;;;;;;;;;;;15.20;99.90;;;;;;5065191;28;19912;-64
2022/09/15 05:08:30;;;;;;;;;;;15.20;99.90;;;;;;5065191;28;20003;-65
2022/09/15 05:11:00;;;;;;;;;;;15.20;99.90;;;;;;5068531;28;20492;-65
2022/09/15 05:13:25;;;;;;;;;;;15.10;99.90;;;;;;5067113;28;20130;-65
2022/09/15 05:15:51;;;;;;;;;;;15.20;99.90;;;;;;5069386;28;19920;-65
2022/09/15 05:18:17;;;;;;;;;;;15.20;99.90;;;;;;5071469;28;19916;-64
2022/09/15 05:20:42;;;;;;;;;;;15.30;99.90;;;;;;5061930;28;19943;-64
2022/09/15 05:23:09;;;;;;;;;;;15.50;99.90;;;;;;5044702;28;20390;-64
2022/09/15 05:25:34;;;;;;;;;;;15.40;99.90;;;;;;5064341;28;19952;-65
2022/09/15 05:28:00;;;;;;;;;;;15.50;99.90;;;;;;5063567;28;20841;-65
2022/09/15 05:30:26;;;;;;;;;;;15.30;99.90;;;;;;5068233;28;19917;-65
2022/09/15 05:32:51;;;;;;;;;;;15.20;99.90;;;;;;5065374;28;19927;-65
2022/09/15 05:35:17;;;;;;;;;;;15.10;99.90;;;;;;5062929;28;19913;-66
2022/09/15 05:37:43;;;;;;;;;;;15.00;99.90;;;;;;5062285;28;19963;-65
2022/09/15 05:40:08;;;;;;;;;;;15.00;99.90;;;;;;5061000;28;19916;-65
2022/09/15 05:42:34;;;;;;;;;;;15.00;99.90;;;;;;5047167;28;19913;-65
2022/09/15 05:45:00;;;;;;;;;;;15.10;99.90;;;;;;5068680;28;19912;-65
2022/09/15 05:47:25;;;;;;;;;;;15.00;99.90;;;;;;5070903;28;19912;-65
2022/09/15 05:49:52;;;;;;;;;;;15.00;99.90;;;;;;5071904;28;19916;-66
2022/09/15 05:52:18;;;;;;;;;;;15.00;99.90;;;;;;5069723;28;19975;-64
2022/09/15 05:54:43;;;;;;;;;;;15.00;99.90;;;;;;5067547;28;20012;-65
2022/09/15 05:57:09;;;;;;;;;;;15.00;99.90;;;;;;5064746;28;19920;-65
2022/09/15 05:59:37;;;;;;;;;;;15.10;99.90;;;;;;5037502;28;19946;-65
2022/09/15 06:02:03;;;;;;;;;;;15.10;99.90;;;;;;5065442;28;19928;-65
2022/09/15 06:04:28;;;;;;;;;;;15.10;99.90;;;;;;5061639;28;19920;-65
2022/09/15 06:06:54;;;;;;;;;;;15.10;99.90;;;;;;5061428;28;19995;-65
2022/09/15 06:09:19;;;;;;;;;;;15.10;99.90;;;;;;5061639;28;19920;-65
2022/09/15 06:11:45;;;;;;;;;;;15.10;99.90;;;;;;5065557;28;19995;-65
2022/09/15 06:14:12;;;;;;;;;;;15.10;99.90;;;;;;5068935;28;20427;-65
2022/09/15 06:16:38;;;;;;;;;;;15.10;99.90;;;;;;5049101;28;19920;-65
2022/09/15 06:19:03;;;;;;;;;;;15.10;99.90;;;;;;5067636;28;20270;-65
2022/09/15 06:21:30;;;;;;;;;;;15.10;99.90;;;;;;5048893;28;19912;-65
2022/09/15 06:23:57;;;;;;;;;;;15.00;99.90;;;;;;5071520;28;19921;-65
2022/09/15 06:26:23;;;;;;;;;;;14.90;99.90;;;;;;5070264;28;20198;-65
2022/09/15 06:28:50;;;;;;;;;;;14.90;99.90;;;;;;5063958;28;20275;-65
2022/09/15 06:31:17;;;;;;;;;;;14.80;99.90;;;;;;5066596;28;19919;-65
2022/09/15 06:33:44;;;;;;;;;;;14.90;99.90;;;;;;5045699;28;19916;-65
2022/09/15 06:36:13;;;;;;;;;;;14.90;99.90;;;;;;5070076;28;20007;-65
2022/09/15 06:38:39;;;;;;;;;;;14.90;99.90;;;;;;5075595;28;19912;-65
2022/09/15 06:41:04;;;;;;;;;;;15.00;99.90;;;;;;5071568;28;19920;-66
2022/09/15 06:43:31;;;;;;;;;;;15.10;99.90;;;;;;5071898;28;19919;-67
2022/09/15 06:46:03;;;;;;;;;;;15.00;99.90;;;;;;5069854;28;19923;-66
2022/09/15 06:48:30;;;;;;;;;;;15.00;99.90;;;;;;5050642;28;20340;-66
2022/09/15 06:50:57;;;;;;;;;;;15.00;99.90;;;;;;5049206;28;20256;-65
2022/09/15 06:53:22;;;;;;;;;;;14.90;99.90;;;;;;5066238;28;19955;-68
2022/09/15 06:55:48;;;;;;;;;;;14.90;99.90;;;;;;5051135;28;19958;-65
2022/09/15 06:58:17;;;;;;;;;;;15.00;99.90;;;;;;5051628;28;20485;-65
2022/09/15 07:00:42;;;;;;;;;;;14.90;99.90;;;;;;5067091;28;19913;-66
2022/09/15 07:03:08;;;;;;;;;;;14.90;99.90;;;;;;5070198;28;19934;-65
2022/09/15 07:05:34;;;;;;;;;;;14.90;99.90;;;;;;5069760;28;19913;-65
2022/09/15 07:07:59;;;;;;;;;;;14.90;99.90;;;;;;5069233;28;20389;-66
2022/09/15 07:10:25;;;;;;;;;;;15.00;99.90;;;;;;5070535;28;19928;-66
2022/09/15 07:12:50;;;;;;;;;;;15.10;99.90;;;;;;5063074;28;19909;-66
2022/09/15 07:15:16;;;;;;;;;;;15.20;99.90;;;;;;5051103;28;19916;-65
2022/09/15 07:17:42;;;;;;;;;;;15.10;99.90;;;;;;5059219;28;19942;-66
2022/09/15 07:20:08;;;;;;;;;;;15.30;99.90;;;;;;5064843;28;20378;-65
2022/09/15 07:22:33;;;;;;;;;;;15.20;99.90;;;;;;5070513;28;20015;-65
2022/09/15 07:24:59;;;;;;;;;;;15.20;99.90;;;;;;5070099;28;19960;-65
2022/09/15 07:27:30;;;;;;;;;;;15.20;99.90;;;;;;5068341;28;19917;-64
2022/09/15 07:29:56;;;;;;;;;;;15.30;99.90;;;;;;5066582;28;20612;-64
2022/09/15 07:32:22;;;;;;;;;;;15.30;99.90;;;;;;5068322;28;19919;-64
2022/09/15 07:34:47;;;;;;;;;;;15.20;99.90;;;;;;5067164;28;19916;-64
2022/09/15 07:37:13;;;;;;;;;;;15.30;99.90;;;;;;5065048;28;19913;-64
2022/09/15 07:39:38;;;;;;;;;;;15.50;99.90;;;;;;5067656;28;20347;-65
2022/09/15 07:42:04;;;;;;;;;;;15.60;99.90;;;;;;5050739;28;20308;-65
2022/09/15 07:44:30;;;;;;;;;;;15.60;99.90;;;;;;5068341;28;20271;-66
2022/09/15 07:46:55;;;;;;;;;;;15.60;99.90;;;;;;5048730;28;20344;-65
2022/09/15 07:49:21;;;;;;;;;;;15.60;99.90;;;;;;5070518;28;19921;-65
2022/09/15 07:51:46;;;;;;;;;;;15.60;99.90;;;;;;5071771;28;20295;-65
2022/09/15 07:54:12;;;;;;;;;;;15.60;99.90;;;;;;5070536;28;20195;-64
2022/09/15 07:56:37;;;;;;;;;;;15.70;99.90;;;;;;5070082;28;19913;-65
2022/09/15 07:59:03;;;;;;;;;;;15.90;99.90;;;;;;5049881;28;20291;-65
2022/09/15 08:01:28;;;;;;;;;;;15.80;99.90;;;;;;5065174;28;19958;-65
2022/09/15 08:03:54;;;;;;;;;;;15.80;99.90;;;;;;5068156;28;19920;-65
2022/09/15 08:06:21;;;;;;;;;;;15.80;99.20;;;;;;5065596;28;19946;-64
2022/09/15 08:08:49;;;;;;;;;;;16.00;98.60;;;;;;5066454;28;19921;-65
2022/09/15 08:11:17;;;;;;;;;;;16.00;98.00;;;;;;5043707;28;19921;-65
2022/09/15 08:13:42;;;;;;;;;;;15.90;99.00;;;;;;5068926;28;20027;-65
2022/09/15 08:16:09;;;;;;;;;;;15.90;98.10;;;;;;5048164;28;20448;-64
2022/09/15 08:18:35;;;;;;;;;;;15.90;99.40;;;;;;5070159;28;20367;-65
2022/09/15 08:21:05;;;;;;;;;;;16.10;99.10;;;;;;5069820;28;19920;-64
2022/09/15 08:23:30;;;;;;;;;;;16.20;98.60;;;;;;5052232;28;19912;-63
2022/09/15 08:25:56;;;;;;;;;;;16.40;98.30;;;;;;5070414;28;19912;-65
2022/09/15 08:28:22;;;;;;;;;;;16.40;97.00;;;;;;5066620;28;20363;-64
2022/09/15 08:30:47;;;;;;;;;;;16.40;95.30;;;;;;5052426;28;19986;-63
2022/09/15 08:33:13;;;;;;;;;;;16.40;96.20;;;;;;5069814;28;20003;-64
2022/09/15 08:35:38;;;;;;;;;;;16.40;96.10;;;;;;5071488;28;20462;-64
2022/09/15 08:38:04;;;;;;;;;;;16.40;95.90;;;;;;5069741;28;19928;-65
2022/09/15 08:40:33;;;;;;;;;;;16.40;95.70;;;;;;5055771;28;20011;-64
2022/09/15 08:43:02;;;;;;;;;;;16.50;95.00;;;;;;5070894;28;19912;-65
2022/09/15 08:45:33;;;;;;;;;;;16.40;93.90;;;;;;5062428;28;19912;-65
2022/09/15 08:48:02;;;;;;;;;;;16.50;94.40;;;;;;5071491;28;20267;-64
2022/09/15 08:50:32;;;;;;;;;;;16.60;93.70;;;;;;5043376;28;20379;-65
2022/09/15 08:53:08;;;;;;;;;;;16.60;92.60;;;;;;5069515;28;20490;-65
2022/09/15 08:56:03;;;;;;;;;;;16.50;94.30;;;;;;5074082;28;20479;-64
2022/09/15 08:58:34;;;;;;;;;;;16.50;93.50;;;;;;5057527;28;20282;-65
2022/09/15 09:01:03;;;;;;;;;;;16.60;92.60;;;;;;5069666;28;20239;-65
2022/09/15 09:03:31;;;;;;;;;;;16.70;90.10;;;;;;5074458;28;19913;-64
2022/09/15 09:05:58;;;;;;;;;;;16.90;86.20;;;;;;5071322;28;19988;-65
2022/09/15 09:08:48;;;;;;;;;;;16.80;82.20;;;;;;5069758;28;19921;-64
2022/09/15 09:11:27;;;;;;;;;;;16.80;82.40;;;;;;5074750;28;19943;-66
2022/09/15 09:14:02;;;;;;;;;;;16.90;75.30;;;;;;5081708;28;20247;-64
2022/09/15 09:16:43;;;;;;;;;;;16.80;74.20;;;;;;5046245;28;20272;-65
2022/09/15 09:19:18;;;;;;;;;;;16.70;73.50;;;;;;5053334;28;19913;-65
2022/09/15 09:21:50;;;;;;;;;;;16.60;74.70;;;;;;5072849;28;19912;-64
2022/09/15 09:24:29;;;;;;;;;;;16.70;73.70;;;;;;5070899;28;20347;-64
2022/09/15 09:26:55;;;;;;;;;;;16.60;73.60;;;;;;5066667;28;19971;-64
2022/09/15 09:29:28;;;;;;;;;;;16.60;73.20;;;;;;5072229;28;20380;-65
2022/09/15 09:31:55;;;;;;;;;;;16.50;73.80;;;;;;5070556;28;19951;-65
2022/09/15 09:34:37;;;;;;;;;;;16.50;74.80;;;;;;5068467;28;19988;-64
2022/09/15 09:37:10;;;;;;;;;;;16.50;75.50;;;;;;5070200;28;19966;-64
2022/09/15 09:39:35;;;;;;;;;;;16.50;74.40;;;;;;5064010;28;19927;-65
2022/09/15 09:42:01;;;;;;;;;;;16.70;74.40;;;;;;5063199;28;19920;-65
2022/09/15 09:44:30;;;;;;;;;;;16.60;74.80;;;;;;5068747;28;19912;-65
2022/09/15 09:46:57;;;;;;;;;;;16.70;76.00;;;;;;5067815;28;19949;-65
2022/09/15 09:49:23;;;;;;;;;;;16.70;74.30;;;;;;5071511;28;20461;-64
2022/09/15 09:51:51;;;;;;;;;;;16.50;75.00;;;;;;5068673;28;20015;-64
2022/09/15 09:54:19;;;;;;;;;;;16.50;77.20;;;;;;5064693;28;19912;-65
2022/09/15 09:56:48;;;;;;;;;;;16.60;76.90;;;;;;5067583;28;19919;-66
2022/09/15 09:59:33;;;;;;;;;;;16.60;78.60;;;;;;5071791;28;19912;-64
2022/09/15 10:02:11;;;;;;;;;;;16.70;77.30;;;;;;5068575;28;20291;-64
2022/09/15 10:04:37;;;;;;;;;;;16.70;76.90;;;;;;5070949;28;20290;-64
2022/09/15 10:07:03;;;;;;;;;;;16.50;77.40;;;;;;5067861;28;20274;-65
2022/09/15 10:09:29;;;;;;;;;;;16.60;76.10;;;;;;5069397;28;19966;-64
2022/09/15 10:11:57;;;;;;;;;;;16.70;76.40;;;;;;5069500;28;19999;-64
2022/09/15 10:14:34;;;;;;;;;;;16.70;75.20;;;;;;5068932;28;19917;-64
2022/09/15 10:17:11;;;;;;;;;;;16.80;75.40;;;;;;5066890;28;19972;-64
2022/09/15 10:19:57;;;;;;;;;;;16.70;75.20;;;;;;5050720;28;19912;-66
2022/09/15 10:22:23;;;;;;;;;;;16.60;77.10;;;;;;5066357;28;19923;-65
2022/09/15 10:24:49;;;;;;;;;;;16.70;76.10;;;;;;5074438;28;19924;-65
2022/09/15 10:27:17;;;;;;;;;;;16.90;77.70;;;;;;5073619;28;20314;-65
2022/09/15 10:29:42;;;;;;;;;;;17.10;76.00;;;;;;5071261;28;19920;-64
2022/09/15 10:32:20;;;;;;;;;;;17.10;72.70;;;;;;5069794;28;19927;-65
2022/09/15 10:34:47;;;;;;;;;;;17.00;74.10;;;;;;5068661;28;19923;-64
2022/09/15 10:37:34;;;;;;;;;;;17.10;74.40;;;;;;5067061;28;19925;-65
2022/09/15 10:40:06;;;;;;;;;;;17.30;71.70;;;;;;5068750;28;19912;-64
2022/09/15 10:42:47;;;;;;;;;;;17.10;69.50;;;;;;5074064;28;19913;-66
2022/09/15 10:45:13;;;;;;;;;;;17.00;70.60;;;;;;5069486;28;19912;-65
2022/09/15 10:47:57;;;;;;;;;;;17.30;70.30;;;;;;5069514;28;19912;-66
2022/09/15 10:50:25;;;;;;;;;;;17.30;69.80;;;;;;5068279;28;19970;-63
2022/09/15 10:53:09;;;;;;;;;;;17.30;68.40;;;;;;5066295;28;19939;-64
2022/09/15 10:55:34;;;;;;;;;;;17.20;67.10;;;;;;5070008;28;19917;-65
2022/09/15 10:58:19;;;;;;;;;;;17.40;67.80;;;;;;5046473;28;20387;-64
2022/09/15 11:00:44;;;;;;;;;;;17.30;67.30;;;;;;5067387;28;19934;-64
2022/09/15 11:03:15;;;;;;;;;;;17.30;68.40;;;;;;5051047;28;19913;-64
2022/09/15 11:05:59;;;;;;;;;;;17.30;68.70;;;;;;5052527;28;20337;-64
2022/09/15 11:08:45;;;;;;;;;;;17.30;68.30;;;;;;5048414;28;20003;-65
2022/09/15 11:11:10;;;;;;;;;;;17.40;68.20;;;;;;5067141;28;19921;-63
2022/09/15 11:13:55;;;;;;;;;;;17.60;66.30;;;;;;5047796;28;20346;-65
2022/09/15 11:16:28;;;;;;;;;;;17.60;64.80;;;;;;5051194;28;19917;-65
2022/09/15 11:19:00;;;;;;;;;;;17.50;64.50;;;;;;5067199;28;20087;-64
2022/09/15 11:21:38;;;;;;;;;;;17.70;65.80;;;;;;5066949;28;20236;-65
2022/09/15 11:24:10;;;;;;;;;;;17.90;65.10;;;;;;5073647;28;19912;-64
2022/09/15 11:26:47;;;;;;;;;;;17.70;65.00;;;;;;5075994;28;20612;-64
2022/09/15 11:29:17;;;;;;;;;;;17.50;66.30;;;;;;5077417;28;19916;-66
2022/09/15 11:31:45;;;;;;;;;;;17.60;65.20;;;;;;5075543;28;20613;-64
2022/09/15 11:34:13;;;;;;;;;;;17.50;66.60;;;;;;5071211;28;20724;-64
2022/09/15 11:36:45;;;;;;;;;;;17.40;64.40;;;;;;5068122;28;20439;-63
2022/09/15 11:39:17;;;;;;;;;;;17.20;64.70;;;;;;5068356;28;19975;-65
2022/09/15 11:41:55;;;;;;;;;;;17.50;63.50;;;;;;5067162;28;20276;-64
2022/09/15 11:44:21;;;;;;;;;;;17.70;62.40;;;;;;5068523;28;19918;-64
2022/09/15 11:46:49;;;;;;;;;;;18.00;62.00;;;;;;5069650;28;19996;-63
2022/09/15 11:49:17;;;;;;;;;;;18.10;61.40;;;;;;5066927;28;19970;-64
2022/09/15 11:51:51;;;;;;;;;;;18.20;60.70;;;;;;5065879;28;19995;-65
2022/09/15 11:54:22;;;;;;;;;;;18.20;60.00;;;;;;5066082;28;20030;-64
2022/09/15 11:56:48;;;;;;;;;;;18.50;59.30;;;;;;5066565;28;19913;-64
2022/09/15 11:59:31;;;;;;;;;;;18.60;60.20;;;;;;5049596;28;20853;-64
2022/09/15 12:01:59;;;;;;;;;;;18.70;57.90;;;;;;5073319;28;19913;-64
2022/09/15 12:04:28;;;;;;;;;;;18.50;58.40;;;;;;5067421;28;19919;-64
2022/09/15 12:06:56;;;;;;;;;;;18.50;59.50;;;;;;5064742;28;19946;-64
2022/09/15 12:09:22;;;;;;;;;;;18.60;59.50;;;;;;5069141;28;20275;-64
2022/09/15 12:11:53;;;;;;;;;;;18.70;59.20;;;;;;5065757;28;19913;-63
2022/09/15 12:14:42;;;;;;;;;;;18.80;59.50;;;;;;5067531;28;19939;-65
2022/09/15 12:17:11;;;;;;;;;;;18.70;59.70;;;;;;5056578;28;20389;-65
2022/09/15 12:19:51;;;;;;;;;;;18.80;59.20;;;;;;5066633;28;19916;-63
2022/09/15 12:22:22;;;;;;;;;;;18.90;58.30;;;;;;5066559;28;19920;-64
2022/09/15 12:25:06;;;;;;;;;;;19.00;57.90;;;;;;5069739;28;19948;-63
2022/09/15 12:27:31;;;;;;;;;;;18.90;58.10;;;;;;5065706;28;19913;-63
2022/09/15 12:29:58;;;;;;;;;;;18.90;58.40;;;;;;5065678;28;20278;-64
2022/09/15 12:32:28;;;;;;;;;;;18.80;59.10;;;;;;5065835;28;19920;-64
2022/09/15 12:34:57;;;;;;;;;;;19.00;58.30;;;;;;5063624;28;19917;-65
2022/09/15 12:37:23;;;;;;;;;;;19.00;58.50;;;;;;5069022;28;20308;-63
2022/09/15 12:39:49;;;;;;;;;;;19.10;59.30;;;;;;5046316;28;20249;-65
2022/09/15 12:42:30;;;;;;;;;;;19.20;58.60;;;;;;5066368;28;19913;-64
2022/09/15 12:44:57;;;;;;;;;;;19.10;58.60;;;;;;5067675;28;20220;-63
2022/09/15 12:47:32;;;;;;;;;;;19.00;58.10;;;;;;5039413;28;19939;-66
2022/09/15 12:50:04;;;;;;;;;;;19.20;58.20;;;;;;5050448;28;20006;-64
2022/09/15 12:52:30;;;;;;;;;;;18.90;59.00;;;;;;5071489;28;19927;-66
2022/09/15 12:55:01;;;;;;;;;;;18.80;59.70;;;;;;5070670;28;19925;-66
2022/09/15 12:57:34;;;;;;;;;;;18.80;60.40;;;;;;5066087;28;20302;-66
2022/09/15 13:00:33;;;;;;;;;;;18.70;60.40;;;;;;5063855;28;20355;-65
2022/09/15 13:03:00;;;;;;;;;;;18.60;60.70;;;;;;5030542;28;19917;-63
2022/09/15 13:05:41;;;;;;;;;;;18.60;61.00;;;;;;5065320;28;19916;-65
2022/09/15 13:08:10;;;;;;;;;;;18.70;61.20;;;;;;5066159;28;19927;-64
2022/09/15 13:10:56;;;;;;;;;;;19.00;59.80;;;;;;5050553;28;20339;-64
2022/09/15 13:13:27;;;;;;;;;;;19.10;59.70;;;;;;5026792;28;19912;-64
2022/09/15 13:15:53;;;;;;;;;;;19.40;59.20;;;;;;5062878;28;19920;-65
2022/09/15 13:18:20;;;;;;;;;;;19.70;58.60;;;;;;5050743;28;20602;-64
2022/09/15 13:20:51;;;;;;;;;;;19.80;57.60;;;;;;5066241;28;19912;-64
2022/09/15 13:23:22;;;;;;;;;;;19.70;57.70;;;;;;5062858;28;19912;-64
2022/09/15 13:25:48;;;;;;;;;;;19.50;57.40;;;;;;5064390;28;19955;-64
2022/09/15 13:28:14;;;;;;;;;;;19.50;57.50;;;;;;5066181;28;20330;-65
2022/09/15 13:30:40;;;;;;;;;;;19.40;57.90;;;;;;5064894;28;19963;-66
2022/09/15 13:33:20;;;;;;;;;;;19.10;57.70;;;;;;5072364;28;20027;-65
2022/09/15 13:35:59;;;;;;;;;;;19.00;58.10;;;;;;5067420;28;19932;-64
2022/09/15 13:38:25;;;;;;;;;;;19.10;57.80;;;;;;5067906;28;19928;-65
2022/09/15 13:41:09;;;;;;;;;;;19.20;57.50;;;;;;5062931;28;19913;-65
2022/09/15 13:43:41;;;;;;;;;;;19.40;59.00;;;;;;5065788;28;19923;-65
2022/09/15 13:46:45;;;;;;;;;;;19.30;57.60;;;;;;5072603;28;20303;-64
2022/09/15 13:49:11;;;;;;;;;;;19.40;58.10;;;;;;4988706;28;19984;-64
2022/09/15 13:51:38;;;;;;;;;;;19.60;57.10;;;;;;4987237;28;20419;-64
2022/09/15 13:54:14;;;;;;;;;;;19.70;56.70;;;;;;5026898;28;19966;-67
2022/09/15 13:56:40;;;;;;;;;;;19.80;56.40;;;;;;5069850;28;19912;-65
2022/09/15 13:59:10;;;;;;;;;;;19.70;57.00;;;;;;5075964;28;19924;-64
2022/09/15 14:01:39;;;;;;;;;;;19.40;56.80;;;;;;5068557;28;19920;-63
2022/09/15 14:04:15;;;;;;;;;;;19.30;57.50;;;;;;5071441;28;19920;-65
2022/09/15 14:06:45;;;;;;;;;;;19.30;58.20;;;;;;5069816;28;19916;-64
2022/09/15 14:09:11;;;;;;;;;;;19.30;57.90;;;;;;5068969;28;19928;-64
2022/09/15 14:11:37;;;;;;;;;;;19.50;58.10;;;;;;5066785;28;19916;-64
2022/09/15 14:14:04;;;;;;;;;;;19.60;58.20;;;;;;5068386;28;19912;-65
2022/09/15 14:16:34;;;;;;;;;;;19.70;57.80;;;;;;5052887;28;19920;-67
2022/09/15 14:19:00;;;;;;;;;;;19.50;59.20;;;;;;5066599;28;20285;-66
2022/09/15 14:21:27;;;;;;;;;;;19.50;58.80;;;;;;5067869;28;19913;-64
2022/09/15 14:23:56;;;;;;;;;;;19.40;59.50;;;;;;5071043;28;21638;-65
2022/09/15 14:26:23;;;;;;;;;;;19.40;60.60;;;;;;5068250;28;19912;-66
2022/09/15 14:28:50;;;;;;;;;;;19.30;61.20;;;;;;5065469;28;19916;-65